createdAt,value
2022-09-24T00:02:05.577Z,3.63
2022-09-24T00:04:33.513Z,2.77
2022-09-24T00:07:01.417Z,3.03
2022-09-24T00:09:29.301Z,2.00
2022-09-24T00:11:57.393Z,3.73
2022-09-24T00:14:26.758Z,4.43
2022-09-24T00:16:54.678Z,3.87
2022-09-24T00:19:22.598Z,3.57
2022-09-24T00:21:50.726Z,3.40
2022-09-24T00:24:33.072Z,2.67
2022-09-24T00:27:02.994Z,3.37
2022-09-24T00:29:35.788Z,8.47
2022-09-24T00:32:05.276Z,4.47
2022-09-24T00:34:33.514Z,6.87
2022-09-24T00:37:01.419Z,7.00
2022-09-24T00:39:29.327Z,7.10
2022-09-24T00:41:57.287Z,9.37
2022-09-24T00:44:51.862Z,8.00
2022-09-24T00:47:30.862Z,3.10
2022-09-24T00:50:06.246Z,3.17
2022-09-24T00:52:35.146Z,7.50
2022-09-24T00:55:03.138Z,4.53
2022-09-24T00:57:31.206Z,9.17
2022-09-24T01:00:00.870Z,8.83
2022-09-24T01:02:28.911Z,7.03
2022-09-24T01:04:57.127Z,5.43
2022-09-24T01:07:25.537Z,3.93
2022-09-24T01:09:53.830Z,4.57
2022-09-24T01:12:28.457Z,5.20
2022-09-24T01:15:08.082Z,2.67
2022-09-24T01:17:39.187Z,3.20
2022-09-24T01:20:45.444Z,2.67
2022-09-24T01:23:48.852Z,3.50
2022-09-24T01:26:30.221Z,4.47
2022-09-24T01:29:06.377Z,5.73
2022-09-24T01:31:41.125Z,8.73
2022-09-24T01:34:09.865Z,4.07
2022-09-24T01:36:39.837Z,3.63
2022-09-24T01:39:08.911Z,3.77
2022-09-24T01:41:38.526Z,3.20
2022-09-24T01:44:07.953Z,3.50
2022-09-24T01:46:39.219Z,5.07
2022-09-24T01:49:07.379Z,3.90
2022-09-24T01:51:39.431Z,4.20
2022-09-24T01:54:11.865Z,4.73
2022-09-24T01:56:42.654Z,3.50
2022-09-24T01:59:14.465Z,6.30
2022-09-24T02:01:48.716Z,3.93
2022-09-24T02:04:19.023Z,5.83
2022-09-24T02:06:51.476Z,7.83
2022-09-24T02:09:33.209Z,15.57
2022-09-24T02:12:10.349Z,11.63
2022-09-24T02:14:42.818Z,10.60
2022-09-24T02:17:12.778Z,8.50
2022-09-24T02:19:42.715Z,12.80
2022-09-24T02:22:12.316Z,4.47
2022-09-24T02:24:45.762Z,5.77
2022-09-24T02:27:13.940Z,5.10
2022-09-24T02:29:41.881Z,9.83
2022-09-24T02:32:14.670Z,4.53
2022-09-24T02:34:44.414Z,10.30
2022-09-24T02:37:14.110Z,4.10
2022-09-24T02:39:42.315Z,5.17
2022-09-24T02:42:12.057Z,3.63
2022-09-24T02:44:39.943Z,12.20
2022-09-24T02:47:08.579Z,5.33
2022-09-24T02:49:37.877Z,5.43
2022-09-24T02:52:05.808Z,3.90
2022-09-24T02:54:34.356Z,4.43
2022-09-24T02:57:02.329Z,3.17
2022-09-24T02:59:30.191Z,5.27
2022-09-24T03:01:58.433Z,5.60
2022-09-24T03:04:26.574Z,4.17
2022-09-24T03:06:55.835Z,9.60
2022-09-24T03:09:23.737Z,12.43
2022-09-24T03:11:51.946Z,5.53
2022-09-24T03:14:19.887Z,8.50
2022-09-24T03:16:47.777Z,4.90
2022-09-24T03:19:15.703Z,4.07
2022-09-24T03:21:43.594Z,4.57
2022-09-24T03:24:12.915Z,9.70
2022-09-24T03:26:41.483Z,5.57
2022-09-24T03:29:10.289Z,6.00
2022-09-24T03:31:37.226Z,3.90
2022-09-24T03:34:05.465Z,8.67
2022-09-24T03:36:33.513Z,13.27
2022-09-24T03:39:01.409Z,15.57
2022-09-24T03:41:30.670Z,16.27
2022-09-24T03:43:58.590Z,16.47
2022-09-24T03:46:28.608Z,16.47
2022-09-24T03:48:59.332Z,18.33
2022-09-24T03:51:27.441Z,12.27
2022-09-24T03:53:55.353Z,16.23
2022-09-24T03:56:23.282Z,17.50
2022-09-24T03:58:52.720Z,14.47
2022-09-24T04:01:21.765Z,15.93
2022-09-24T04:03:50.441Z,16.73
2022-09-24T04:06:24.886Z,17.73
2022-09-24T04:08:53.962Z,15.40
2022-09-24T04:11:22.000Z,19.23
2022-09-24T04:13:49.881Z,21.50
2022-09-24T04:16:19.362Z,10.63
2022-09-24T04:18:48.049Z,10.47
2022-09-24T04:21:16.092Z,13.77
2022-09-24T04:23:44.150Z,8.60
2022-09-24T04:26:12.549Z,16.80
2022-09-24T04:28:40.610Z,14.57
2022-09-24T04:31:08.578Z,9.33
2022-09-24T04:33:37.975Z,15.57
2022-09-24T04:36:05.866Z,7.20
2022-09-24T04:38:33.817Z,10.37
2022-09-24T04:41:06.629Z,9.90
2022-09-24T04:43:34.643Z,7.30
2022-09-24T04:46:03.506Z,14.23
2022-09-24T04:48:31.633Z,18.27
2022-09-24T04:51:02.196Z,18.77
2022-09-24T04:53:30.106Z,20.00
2022-09-24T04:55:58.099Z,18.13
2022-09-24T04:58:26.138Z,17.43
2022-09-24T05:00:54.375Z,21.67
2022-09-24T05:03:22.387Z,20.10
2022-09-24T05:05:51.189Z,20.83
2022-09-24T05:08:20.418Z,21.50
2022-09-24T05:10:48.361Z,20.83
2022-09-24T05:13:16.318Z,15.50
2022-09-24T05:15:44.419Z,17.03
2022-09-24T05:18:12.355Z,15.67
2022-09-24T05:20:40.245Z,12.00
2022-09-24T05:23:08.151Z,13.03
2022-09-24T05:25:58.257Z,18.33
2022-09-24T05:28:25.307Z,10.10
2022-09-24T05:30:58.062Z,18.13
2022-09-24T05:33:26.219Z,13.30
2022-09-24T05:35:55.300Z,17.43
2022-09-24T05:38:23.201Z,19.37
2022-09-24T05:40:52.538Z,16.50
2022-09-24T05:43:20.808Z,14.30
2022-09-24T05:45:50.591Z,18.07
2022-09-24T05:48:18.604Z,11.33
2022-09-24T05:50:46.495Z,14.30
2022-09-24T05:53:14.667Z,12.17
2022-09-24T05:55:44.168Z,13.60
2022-09-24T05:58:15.611Z,8.40
2022-09-24T06:00:43.782Z,10.97
2022-09-24T06:03:13.773Z,14.40
2022-09-24T06:05:46.184Z,16.80
2022-09-24T06:08:15.424Z,7.77
2022-09-24T06:10:44.133Z,6.60
2022-09-24T06:13:14.213Z,7.17
2022-09-24T06:15:42.606Z,13.43
2022-09-24T06:18:11.094Z,8.87
2022-09-24T06:20:40.235Z,7.90
2022-09-24T06:23:08.144Z,6.83
2022-09-24T06:25:36.071Z,8.93
2022-09-24T06:28:05.554Z,9.03
2022-09-24T06:30:38.373Z,6.13
2022-09-24T06:33:07.826Z,14.27
2022-09-24T06:35:36.518Z,12.70
2022-09-24T06:38:04.730Z,13.43
2022-09-24T06:40:36.656Z,15.33
2022-09-24T06:43:05.449Z,11.40
2022-09-24T06:45:33.427Z,15.77
2022-09-24T06:48:04.271Z,13.23
2022-09-24T06:50:34.390Z,13.50
2022-09-24T06:53:05.350Z,9.70
2022-09-24T06:55:33.831Z,12.37
2022-09-24T06:58:06.318Z,15.80
2022-09-24T07:00:34.394Z,14.57
2022-09-24T07:03:03.748Z,15.97
2022-09-24T07:05:31.728Z,15.33
2022-09-24T07:07:59.860Z,15.00
2022-09-24T07:10:28.119Z,16.83
2022-09-24T07:12:56.307Z,12.37
2022-09-24T07:15:24.286Z,13.20
2022-09-24T07:17:56.617Z,9.23
2022-09-24T07:20:28.242Z,16.87
2022-09-24T07:22:56.256Z,14.47
2022-09-24T07:25:24.337Z,16.30
2022-09-24T07:27:52.289Z,18.90
2022-09-24T07:30:20.245Z,14.03
2022-09-24T07:32:49.407Z,10.97
2022-09-24T07:35:18.956Z,13.93
2022-09-24T07:37:48.325Z,13.90
2022-09-24T07:40:16.289Z,16.83
2022-09-24T07:42:48.534Z,17.93
2022-09-24T07:45:17.307Z,15.50
2022-09-24T07:47:45.259Z,15.33
2022-09-24T07:50:13.755Z,16.83
2022-09-24T07:52:41.682Z,14.53
2022-09-24T07:55:11.105Z,14.47
2022-09-24T07:57:39.503Z,12.70
2022-09-24T08:00:09.036Z,16.53
2022-09-24T08:02:36.951Z,17.53
2022-09-24T08:05:05.918Z,9.97
2022-09-24T08:07:33.855Z,14.07
2022-09-24T08:10:01.874Z,12.03
2022-09-24T08:12:31.221Z,18.93
2022-09-24T08:14:59.105Z,16.70
2022-09-24T08:17:27.851Z,16.30
2022-09-24T08:19:56.979Z,12.03
2022-09-24T08:22:25.133Z,16.40
2022-09-24T08:24:53.124Z,16.13
2022-09-24T08:27:21.357Z,12.73
2022-09-24T08:29:50.671Z,16.33
2022-09-24T08:32:19.026Z,17.23
2022-09-24T08:34:46.922Z,18.47
2022-09-24T08:37:14.964Z,18.30
2022-09-24T08:39:42.859Z,18.27
2022-09-24T08:42:16.848Z,19.50
2022-09-24T08:45:04.221Z,18.37
2022-09-24T08:47:39.488Z,14.10
2022-09-24T08:50:12.643Z,20.50
2022-09-24T08:52:58.217Z,20.63
2022-09-24T08:55:32.939Z,19.23
2022-09-24T08:58:09.714Z,19.50
2022-09-24T09:00:43.425Z,19.83
2022-09-24T09:03:18.074Z,19.60
2022-09-24T09:05:53.903Z,20.23
2022-09-24T09:08:54.642Z,19.40
2022-09-24T09:11:23.260Z,19.47
2022-09-24T09:13:54.299Z,19.07
2022-09-24T09:16:25.284Z,25.33
2022-09-24T09:18:57.230Z,20.43
2022-09-24T09:21:30.046Z,23.33
2022-09-24T09:23:59.193Z,14.87
2022-09-24T09:26:27.318Z,18.90
2022-09-24T09:28:59.398Z,19.23
2022-09-24T09:31:35.530Z,17.93
2022-09-24T09:34:17.706Z,21.93
2022-09-24T09:36:55.098Z,18.00
2022-09-24T09:39:32.221Z,20.57
2022-09-24T09:42:08.030Z,21.57
2022-09-24T09:44:41.469Z,17.63
2022-09-24T09:47:18.633Z,22.53
2022-09-24T09:49:48.890Z,19.10
2022-09-24T09:52:21.283Z,21.80
2022-09-24T09:54:49.730Z,20.70
2022-09-24T09:57:20.614Z,27.73
2022-09-24T09:59:50.000Z,20.63
2022-09-24T10:02:25.392Z,24.03
2022-09-24T10:04:56.842Z,17.53
2022-09-24T10:07:25.279Z,19.50
2022-09-24T10:10:02.121Z,21.47
2022-09-24T10:12:30.887Z,19.47
2022-09-24T10:15:01.124Z,20.77
2022-09-24T10:17:37.803Z,20.70
2022-09-24T10:20:11.359Z,21.93
2022-09-24T10:22:50.155Z,25.13
2022-09-24T10:25:19.637Z,23.60
2022-09-24T10:27:48.007Z,23.67
2022-09-24T10:30:35.348Z,18.70
2022-09-24T10:33:05.034Z,24.00
2022-09-24T10:35:38.560Z,22.10
2022-09-24T10:38:17.793Z,22.67
2022-09-24T10:40:45.849Z,23.73
2022-09-24T10:43:18.400Z,21.83
2022-09-24T10:46:17.417Z,23.27
2022-09-24T10:48:46.643Z,18.70
2022-09-24T10:51:28.804Z,21.33
2022-09-24T10:54:07.463Z,26.93
2022-09-24T10:56:42.290Z,16.37
2022-09-24T10:59:39.470Z,23.57
2022-09-24T11:02:23.127Z,21.90
2022-09-24T11:04:52.807Z,21.97
2022-09-24T11:07:40.118Z,24.63
2022-09-24T11:10:17.579Z,23.80
2022-09-24T11:12:54.039Z,26.53
2022-09-24T11:15:32.903Z,25.67
2022-09-24T11:18:16.854Z,25.30
2022-09-24T11:20:50.389Z,19.77
2022-09-24T11:23:41.598Z,23.03
2022-09-24T11:26:19.747Z,23.63
2022-09-24T11:29:07.111Z,24.30
2022-09-24T11:31:40.604Z,21.70
2022-09-24T11:34:37.820Z,23.63
2022-09-24T11:37:15.314Z,20.87
2022-09-24T11:39:55.998Z,22.23
2022-09-24T11:42:26.230Z,22.40
2022-09-24T11:45:06.930Z,17.10
2022-09-24T11:47:48.850Z,22.47
2022-09-24T11:50:24.653Z,20.37
2022-09-24T11:52:55.648Z,20.60
2022-09-24T11:55:31.797Z,16.37
2022-09-24T11:58:06.423Z,19.53
2022-09-24T12:00:37.953Z,17.50
2022-09-24T12:03:10.891Z,17.53
2022-09-24T12:05:41.684Z,18.40
2022-09-24T12:08:12.826Z,17.17
2022-09-24T12:10:46.126Z,19.80
2022-09-24T12:13:18.642Z,16.10
2022-09-24T12:15:53.758Z,17.50
2022-09-24T12:18:25.102Z,17.83
2022-09-24T12:20:56.323Z,19.93
2022-09-24T12:23:28.240Z,20.00
2022-09-24T12:25:59.584Z,18.43
2022-09-24T12:28:50.486Z,17.20
2022-09-24T12:31:39.305Z,18.13
2022-09-24T12:34:11.620Z,16.87
2022-09-24T12:36:57.108Z,21.67
2022-09-24T12:39:28.718Z,17.80
2022-09-24T12:42:01.028Z,21.00
2022-09-24T12:44:40.879Z,18.07
2022-09-24T12:47:17.023Z,18.63
2022-09-24T12:49:49.938Z,19.73
2022-09-24T12:52:20.173Z,22.17
2022-09-24T12:54:55.950Z,23.77
2022-09-24T12:57:27.410Z,20.67
2022-09-24T12:59:56.834Z,24.03
2022-09-24T13:02:26.453Z,22.37
2022-09-24T13:05:20.022Z,17.43
2022-09-24T13:07:58.495Z,17.70
2022-09-24T13:10:28.879Z,20.17
2022-09-24T13:13:00.116Z,17.83
2022-09-24T13:15:38.798Z,17.63
2022-09-24T13:18:19.816Z,14.03
2022-09-24T13:20:59.984Z,13.07
2022-09-24T13:23:35.318Z,15.90
2022-09-24T13:26:05.023Z,17.00
2022-09-24T13:28:43.706Z,16.23
2022-09-24T13:31:20.555Z,13.80
2022-09-24T13:33:50.912Z,18.23
2022-09-24T13:36:21.133Z,16.97
2022-09-24T13:38:54.618Z,15.77
2022-09-24T13:41:28.847Z,14.83
2022-09-24T13:44:01.698Z,16.77
2022-09-24T13:46:31.446Z,15.97
2022-09-24T13:49:03.682Z,14.23
2022-09-24T13:51:34.323Z,17.40
2022-09-24T13:54:07.080Z,17.87
2022-09-24T13:56:35.207Z,13.50
2022-09-24T13:59:11.787Z,13.30
2022-09-24T14:01:41.834Z,15.03
2022-09-24T14:04:17.436Z,14.73
2022-09-24T14:06:48.218Z,19.20
2022-09-24T14:09:17.767Z,13.47
2022-09-24T14:11:53.207Z,15.47
2022-09-24T14:14:24.661Z,16.00
2022-09-24T14:16:54.979Z,14.27
2022-09-24T14:19:23.958Z,13.83
2022-09-24T14:21:54.440Z,14.10
2022-09-24T14:24:25.354Z,13.63
2022-09-24T14:26:55.742Z,15.77
2022-09-24T14:29:27.587Z,10.20
2022-09-24T14:31:57.278Z,14.87
2022-09-24T14:34:28.033Z,10.87
2022-09-24T14:36:57.513Z,8.40
2022-09-24T14:39:27.688Z,13.03
2022-09-24T14:41:56.194Z,14.23
2022-09-24T14:44:27.552Z,10.27
2022-09-24T14:46:58.215Z,9.67
2022-09-24T14:49:28.931Z,11.03
2022-09-24T14:51:59.044Z,7.80
2022-09-24T14:54:33.207Z,12.57
2022-09-24T14:57:22.292Z,9.53
2022-09-24T14:59:51.695Z,13.90
2022-09-24T15:02:21.755Z,10.27
2022-09-24T15:04:51.757Z,9.90
2022-09-24T15:07:22.563Z,13.03
2022-09-24T15:09:52.467Z,14.17
2022-09-24T15:12:22.772Z,10.27
2022-09-24T15:14:59.391Z,10.10
2022-09-24T15:17:31.539Z,11.47
2022-09-24T15:19:59.519Z,8.30
2022-09-24T15:22:28.098Z,8.10
2022-09-24T15:25:01.196Z,17.23
2022-09-24T15:27:32.184Z,15.80
2022-09-24T15:30:04.767Z,10.03
2022-09-24T15:32:35.095Z,8.90
2022-09-24T15:35:08.287Z,7.50
2022-09-24T15:37:39.245Z,7.67
2022-09-24T15:40:10.252Z,7.30
2022-09-24T15:42:38.324Z,6.77
2022-09-24T15:45:15.257Z,8.43
2022-09-24T15:47:43.151Z,8.60
2022-09-24T15:50:12.127Z,6.40
2022-09-24T15:52:45.334Z,6.97
2022-09-24T15:55:18.589Z,9.60
2022-09-24T15:57:47.046Z,9.57
2022-09-24T16:00:18.993Z,11.73
2022-09-24T16:02:50.040Z,10.17
2022-09-24T16:05:18.620Z,16.20
2022-09-24T16:07:46.776Z,14.03
2022-09-24T16:10:16.108Z,16.50
2022-09-24T16:12:44.240Z,10.37
2022-09-24T16:15:13.992Z,14.97
2022-09-24T16:17:43.476Z,8.53
2022-09-24T16:20:11.559Z,6.63
2022-09-24T16:22:39.501Z,8.10
2022-09-24T16:25:08.367Z,6.80
2022-09-24T16:27:36.348Z,6.33
2022-09-24T16:30:05.501Z,6.63
2022-09-24T16:32:33.388Z,6.37
2022-09-24T16:35:02.733Z,13.23
2022-09-24T16:37:30.656Z,8.30
2022-09-24T16:39:58.610Z,16.47
2022-09-24T16:42:26.694Z,6.50
2022-09-24T16:44:54.626Z,7.20
2022-09-24T16:47:22.561Z,7.97
2022-09-24T16:49:50.479Z,7.50
2022-09-24T16:52:19.970Z,6.13
2022-09-24T16:54:47.854Z,7.20
2022-09-24T16:57:15.766Z,6.87
2022-09-24T16:59:43.678Z,9.07
2022-09-24T17:02:12.216Z,6.53
2022-09-24T17:04:40.501Z,7.20
2022-09-24T17:07:10.285Z,8.83
2022-09-24T17:09:56.927Z,6.70
2022-09-24T17:12:24.858Z,8.30
2022-09-24T17:14:53.103Z,9.27
2022-09-24T17:17:21.019Z,8.17
2022-09-24T17:19:48.926Z,8.80
2022-09-24T17:22:16.837Z,6.77
2022-09-24T17:24:46.126Z,6.60
2022-09-24T17:27:14.027Z,7.50
2022-09-24T17:29:43.019Z,8.43
2022-09-24T17:32:11.133Z,8.60
2022-09-24T17:34:43.432Z,7.10
2022-09-24T17:37:13.510Z,7.93
2022-09-24T17:39:42.025Z,5.93
2022-09-24T17:42:11.510Z,6.90
2022-09-24T17:44:39.393Z,6.07
2022-09-24T17:47:07.992Z,5.40
2022-09-24T17:49:36.013Z,6.60
2022-09-24T17:52:04.545Z,7.57
2022-09-24T17:54:32.530Z,8.03
2022-09-24T17:57:01.229Z,8.13
2022-09-24T17:59:30.807Z,6.63
2022-09-24T18:01:58.782Z,8.77
2022-09-24T18:04:28.441Z,8.43
2022-09-24T18:06:56.315Z,5.47
2022-09-24T18:09:24.217Z,7.67
2022-09-24T18:11:53.290Z,6.63
2022-09-24T18:14:23.186Z,6.20
2022-09-24T18:16:52.683Z,6.60
2022-09-24T18:19:20.712Z,8.17
2022-09-24T18:21:49.792Z,6.33
2022-09-24T18:24:17.845Z,7.43
2022-09-24T18:26:51.341Z,5.90
2022-09-24T18:29:20.286Z,8.13
2022-09-24T18:31:48.270Z,6.50
2022-09-24T18:34:17.700Z,6.10
2022-09-24T18:36:46.544Z,5.67
2022-09-24T18:39:21.897Z,6.90
2022-09-24T18:41:51.987Z,6.33
2022-09-24T18:44:20.641Z,6.90
2022-09-24T18:46:49.894Z,6.23
2022-09-24T18:49:20.359Z,6.77
2022-09-24T18:51:49.305Z,7.60
2022-09-24T18:54:18.327Z,6.07
2022-09-24T18:56:46.997Z,6.03
2022-09-24T18:59:17.190Z,5.63
2022-09-24T19:01:46.973Z,5.80
2022-09-24T19:04:15.414Z,7.40
2022-09-24T19:06:46.210Z,6.33
2022-09-24T19:09:17.223Z,5.87
2022-09-24T19:11:45.762Z,6.90
2022-09-24T19:14:15.041Z,6.57
2022-09-24T19:16:42.949Z,6.00
2022-09-24T19:19:11.269Z,5.83
2022-09-24T19:21:39.422Z,7.90
2022-09-24T19:24:09.835Z,6.03
2022-09-24T19:26:38.252Z,9.87
2022-09-24T19:29:06.614Z,5.67
2022-09-24T19:31:37.044Z,6.40
2022-09-24T19:34:06.981Z,6.33
2022-09-24T19:36:43.811Z,6.40
2022-09-24T19:39:15.638Z,6.60
2022-09-24T19:41:43.870Z,5.67
2022-09-24T19:44:12.096Z,7.87
2022-09-24T19:46:40.974Z,6.33
2022-09-24T19:49:09.118Z,5.40
2022-09-24T19:51:37.451Z,6.47
2022-09-24T19:54:07.514Z,5.50
2022-09-24T19:56:38.159Z,7.47
2022-09-24T19:59:08.023Z,6.97
2022-09-24T20:01:36.176Z,6.20
2022-09-24T20:04:06.232Z,6.30
2022-09-24T20:06:38.585Z,6.97
2022-09-24T20:09:06.564Z,6.73
2022-09-24T20:11:34.668Z,7.13
2022-09-24T20:14:06.013Z,6.07
2022-09-24T20:16:34.171Z,5.33
2022-09-24T20:19:03.148Z,8.70
2022-09-24T20:21:34.992Z,6.90
2022-09-24T20:24:04.169Z,5.77
2022-09-24T20:26:50.286Z,7.67
2022-09-24T20:29:21.603Z,7.33
2022-09-24T20:31:52.706Z,16.13
2022-09-24T20:34:22.224Z,7.17
2022-09-24T20:36:50.819Z,7.63
2022-09-24T20:39:19.189Z,7.73
2022-09-24T20:41:47.323Z,9.60
2022-09-24T20:44:15.222Z,7.40
2022-09-24T20:46:44.527Z,8.27
2022-09-24T20:49:22.449Z,7.10
2022-09-24T20:51:56.268Z,7.50
2022-09-24T20:54:25.156Z,8.57
2022-09-24T20:56:53.050Z,7.47
2022-09-24T20:59:21.208Z,7.93
2022-09-24T21:01:50.866Z,5.97
2022-09-24T21:04:20.230Z,15.27
2022-09-24T21:06:48.391Z,7.67
2022-09-24T21:09:16.986Z,13.70
2022-09-24T21:11:45.011Z,11.40
2022-09-24T21:14:14.886Z,8.57
2022-09-24T21:16:42.809Z,6.80
2022-09-24T21:19:12.902Z,6.97
2022-09-24T21:21:40.827Z,7.60
2022-09-24T21:24:11.720Z,7.57
2022-09-24T21:26:40.724Z,7.80
2022-09-24T21:29:11.232Z,8.50
2022-09-24T21:31:42.030Z,8.37
2022-09-24T21:34:13.099Z,9.43
2022-09-24T21:36:44.546Z,8.47
2022-09-24T21:39:15.344Z,9.30
2022-09-24T21:41:43.662Z,10.73
2022-09-24T21:44:14.165Z,9.77
2022-09-24T21:46:43.904Z,12.03
2022-09-24T21:49:13.535Z,8.40
2022-09-24T21:51:42.032Z,7.93
2022-09-24T21:54:14.109Z,25.90
2022-09-24T21:56:42.234Z,10.13
2022-09-24T21:59:24.193Z,9.23
2022-09-24T22:01:52.456Z,9.07
2022-09-24T22:04:22.029Z,9.00
2022-09-24T22:06:51.114Z,8.50
2022-09-24T22:09:19.534Z,11.83
2022-09-24T22:11:47.761Z,9.37
2022-09-24T22:14:15.763Z,7.97
2022-09-24T22:16:43.855Z,9.10
2022-09-24T22:19:11.815Z,9.00
2022-09-24T22:21:41.635Z,8.33
2022-09-24T22:24:09.684Z,10.90
2022-09-24T22:26:37.844Z,8.20
2022-09-24T22:29:06.022Z,9.53
2022-09-24T22:31:34.554Z,10.83
2022-09-24T22:34:19.963Z,11.00
2022-09-24T22:36:49.246Z,10.47
2022-09-24T22:39:17.249Z,7.67
2022-09-24T22:41:45.133Z,7.20
2022-09-24T22:44:13.376Z,9.60
2022-09-24T22:46:41.966Z,10.27
2022-09-24T22:49:11.052Z,10.03
2022-09-24T22:51:39.611Z,10.13
2022-09-24T22:54:09.826Z,8.00
2022-09-24T22:56:37.834Z,7.90
2022-09-24T22:59:06.317Z,9.40
2022-09-24T23:01:36.115Z,14.53
2022-09-24T23:04:04.353Z,20.50
2022-09-24T23:06:33.933Z,20.47
2022-09-24T23:09:02.462Z,8.10
2022-09-24T23:11:33.421Z,10.03
2022-09-24T23:14:03.290Z,9.20
2022-09-24T23:16:32.914Z,10.87
2022-09-24T23:19:02.977Z,8.60
2022-09-24T23:21:32.569Z,7.57
2022-09-24T23:24:02.085Z,8.20
2022-09-24T23:26:31.680Z,10.00
2022-09-24T23:29:00.885Z,9.00
2022-09-24T23:31:30.376Z,10.63
2022-09-24T23:33:59.519Z,9.73
2022-09-24T23:36:28.170Z,8.10
2022-09-24T23:38:56.133Z,9.03
2022-09-24T23:41:24.089Z,8.63
2022-09-24T23:43:53.466Z,9.00
2022-09-24T23:46:21.532Z,13.87
2022-09-24T23:48:49.681Z,8.60
2022-09-24T23:51:17.582Z,11.83
2022-09-24T23:53:45.469Z,8.53
2022-09-24T23:56:13.815Z,10.00
2022-09-24T23:58:42.294Z,9.00
